createdAt,value
2023-08-14T00:01:57.046Z,96922.19
2023-08-14T00:04:23.523Z,96911.50
2023-08-14T00:06:50.135Z,96908.97
2023-08-14T00:09:16.686Z,96911.66
2023-08-14T00:11:43.155Z,96907.34
2023-08-14T00:14:09.613Z,96916.03
2023-08-14T00:16:36.068Z,96902.22
2023-08-14T00:19:02.519Z,96909.25
2023-08-14T00:21:31.766Z,96906.63
2023-08-14T00:23:58.278Z,96902.34
2023-08-14T00:26:24.775Z,96892.78
2023-08-14T00:28:51.466Z,96892.84
2023-08-14T00:31:18.379Z,96879.88
2023-08-14T00:33:44.998Z,96874.66
2023-08-14T00:36:11.594Z,96868.66
2023-08-14T00:38:38.073Z,96861.81
2023-08-14T00:41:04.827Z,96858.44
2023-08-14T00:43:31.284Z,96860.31
2023-08-14T00:45:58.753Z,96851.69
2023-08-14T00:48:26.666Z,96850.94
2023-08-14T00:50:54.938Z,96855.34
2023-08-14T00:53:22.307Z,96858.06
2023-08-14T00:55:49.175Z,96856.38
2023-08-14T00:58:16.242Z,96867.81
2023-08-14T01:00:44.434Z,96870.63
2023-08-14T01:03:11.343Z,96876.91
2023-08-14T01:05:38.040Z,96878.03
2023-08-14T01:08:04.623Z,96880.88
2023-08-14T01:10:58.156Z,96882.03
2023-08-14T01:13:31.882Z,96883.81
2023-08-14T01:16:01.755Z,96881.31
2023-08-14T01:18:31.798Z,96870.97
2023-08-14T01:21:14.088Z,96874.47
2023-08-14T01:24:07.954Z,96864.06
2023-08-14T01:26:35.692Z,96858.94
2023-08-14T01:29:04.364Z,96851.16
2023-08-14T01:31:31.230Z,96854.78
2023-08-14T01:33:58.397Z,96855.75
2023-08-14T01:36:33.865Z,96857.50
2023-08-14T01:39:10.731Z,96845.38
2023-08-14T01:42:03.833Z,96848.09
2023-08-14T01:44:32.288Z,96845.59
2023-08-14T01:47:01.200Z,96834.34
2023-08-14T01:49:31.269Z,96831.81
2023-08-14T01:51:59.115Z,96827.56
2023-08-14T01:54:26.070Z,96837.13
2023-08-14T01:56:52.569Z,96826.78
2023-08-14T01:59:23.264Z,96825.09
2023-08-14T02:01:50.029Z,96825.94
2023-08-14T02:04:16.457Z,96826.94
2023-08-14T02:06:42.997Z,96823.50
2023-08-14T02:09:09.489Z,96826.13
2023-08-14T02:11:35.907Z,96824.44
2023-08-14T02:14:02.511Z,96832.28
2023-08-14T02:16:28.991Z,96828.78
2023-08-14T02:18:55.600Z,96832.25
2023-08-14T02:21:22.384Z,96824.50
2023-08-14T02:23:48.773Z,96829.69
2023-08-14T02:26:15.240Z,96834.94
2023-08-14T02:28:41.795Z,96839.38
2023-08-14T02:31:09.737Z,96841.13
2023-08-14T02:33:36.412Z,96842.00
2023-08-14T02:36:02.871Z,96841.16
2023-08-14T02:38:31.527Z,96849.84
2023-08-14T02:40:58.302Z,96858.50
2023-08-14T02:43:25.709Z,96859.34
2023-08-14T02:45:52.182Z,96860.31
2023-08-14T02:48:18.724Z,96860.38
2023-08-14T02:50:45.352Z,96863.13
2023-08-14T02:53:11.854Z,96868.41
2023-08-14T02:55:38.324Z,96871.09
2023-08-14T02:58:04.867Z,96866.88
2023-08-14T03:00:31.441Z,96866.13
2023-08-14T03:02:57.957Z,96866.16
2023-08-14T03:05:24.734Z,96854.94
2023-08-14T03:07:51.263Z,96851.47
2023-08-14T03:10:18.016Z,96849.69
2023-08-14T03:12:44.494Z,96848.78
2023-08-14T03:15:11.043Z,96852.19
2023-08-14T03:17:37.517Z,96858.19
2023-08-14T03:20:05.914Z,96856.38
2023-08-14T03:22:32.430Z,96859.84
2023-08-14T03:24:58.864Z,96868.47
2023-08-14T03:27:25.750Z,96869.28
2023-08-14T03:29:52.151Z,96868.34
2023-08-14T03:32:18.809Z,96872.66
2023-08-14T03:34:45.581Z,96870.91
2023-08-14T03:37:12.846Z,96873.47
2023-08-14T03:39:39.595Z,96875.09
2023-08-14T03:42:06.195Z,96869.00
2023-08-14T03:44:32.718Z,96862.84
2023-08-14T03:46:59.276Z,96848.16
2023-08-14T03:49:25.866Z,96855.97
2023-08-14T03:51:52.309Z,96850.78
2023-08-14T03:54:18.858Z,96849.94
2023-08-14T03:56:45.353Z,96851.72
2023-08-14T03:59:13.208Z,96849.19
2023-08-14T04:01:41.514Z,96853.56
2023-08-14T04:04:07.964Z,96849.25
2023-08-14T04:06:35.815Z,96846.63
2023-08-14T04:09:03.546Z,96840.53
2023-08-14T04:11:31.696Z,96839.72
2023-08-14T04:13:58.123Z,96844.06
2023-08-14T04:16:42.254Z,96848.41
2023-08-14T04:19:10.001Z,96839.84
2023-08-14T04:21:37.227Z,96836.38
2023-08-14T04:24:04.133Z,96842.44
2023-08-14T04:26:30.687Z,96843.31
2023-08-14T04:28:57.149Z,96841.63
2023-08-14T04:31:23.817Z,96834.63
2023-08-14T04:33:50.545Z,96836.31
2023-08-14T04:36:16.947Z,96832.78
2023-08-14T04:38:43.406Z,96833.59
2023-08-14T04:41:10.316Z,96833.53
2023-08-14T04:43:36.787Z,96831.75
2023-08-14T04:46:12.663Z,96823.91
2023-08-14T04:48:39.510Z,96816.06
2023-08-14T04:51:07.704Z,96821.22
2023-08-14T04:53:34.152Z,96815.97
2023-08-14T04:56:00.583Z,96815.88
2023-08-14T04:58:27.080Z,96814.13
2023-08-14T05:00:53.754Z,96821.88
2023-08-14T05:03:20.277Z,96833.16
2023-08-14T05:05:51.429Z,96838.31
2023-08-14T05:08:17.897Z,96849.50
2023-08-14T05:10:44.538Z,96840.78
2023-08-14T05:13:11.110Z,96842.50
2023-08-14T05:15:39.107Z,96849.34
2023-08-14T05:18:05.833Z,96842.31
2023-08-14T05:20:34.771Z,96834.41
2023-08-14T05:23:01.371Z,96843.78
2023-08-14T05:25:27.831Z,96828.94
2023-08-14T05:27:54.422Z,96827.94
2023-08-14T05:30:20.922Z,96837.34
2023-08-14T05:32:50.050Z,96852.81
2023-08-14T05:35:17.966Z,96848.38
2023-08-14T05:37:44.526Z,96853.59
2023-08-14T05:40:11.538Z,96864.66
2023-08-14T05:42:37.948Z,96873.25
2023-08-14T05:45:04.830Z,96863.53
2023-08-14T05:47:31.267Z,96861.66
2023-08-14T05:49:57.917Z,96869.97
2023-08-14T05:52:24.398Z,96861.00
2023-08-14T05:54:50.830Z,96867.66
2023-08-14T05:57:17.269Z,96855.38
2023-08-14T05:59:43.822Z,96858.59
2023-08-14T06:02:10.465Z,96845.31
2023-08-14T06:04:38.858Z,96846.53
2023-08-14T06:07:05.541Z,96853.81
2023-08-14T06:09:32.130Z,96856.00
2023-08-14T06:11:58.784Z,96857.47
2023-08-14T06:14:25.491Z,96853.72
2023-08-14T06:16:51.957Z,96861.09
2023-08-14T06:19:18.927Z,96858.00
2023-08-14T06:21:45.460Z,96851.41
2023-08-14T06:24:11.934Z,96835.72
2023-08-14T06:26:38.440Z,96846.22
2023-08-14T06:29:05.192Z,96840.00
2023-08-14T06:31:31.843Z,96835.78
2023-08-14T06:33:58.388Z,96839.97
2023-08-14T06:36:25.175Z,96842.50
2023-08-14T06:38:51.600Z,96840.09
2023-08-14T06:41:18.540Z,96837.72
2023-08-14T06:43:46.250Z,96848.13
2023-08-14T06:46:12.841Z,96845.38
2023-08-14T06:48:39.274Z,96842.97
2023-08-14T06:51:05.920Z,96844.16
2023-08-14T06:53:33.053Z,96847.41
2023-08-14T06:55:59.823Z,96851.72
2023-08-14T06:58:26.315Z,96853.97
2023-08-14T07:00:52.965Z,96859.84
2023-08-14T07:03:19.855Z,96863.59
2023-08-14T07:05:46.658Z,96867.44
2023-08-14T07:08:13.359Z,96874.59
2023-08-14T07:10:39.785Z,96866.16
2023-08-14T07:13:07.883Z,96876.53
2023-08-14T07:15:34.763Z,96871.66
2023-08-14T07:18:01.299Z,96884.00
2023-08-14T07:20:27.846Z,96882.25
2023-08-14T07:22:55.451Z,96873.53
2023-08-14T07:25:22.031Z,96873.91
2023-08-14T07:27:48.491Z,96875.41
2023-08-14T07:30:15.698Z,96870.63
2023-08-14T07:32:42.202Z,96873.31
2023-08-14T07:35:08.896Z,96874.88
2023-08-14T07:37:35.336Z,96865.25
2023-08-14T07:40:01.854Z,96862.59
2023-08-14T07:42:28.394Z,96863.44
2023-08-14T07:44:54.943Z,96870.28
2023-08-14T07:47:21.544Z,96858.84
2023-08-14T07:49:48.233Z,96856.94
2023-08-14T07:52:14.844Z,96854.19
2023-08-14T07:54:41.276Z,96860.13
2023-08-14T07:57:07.720Z,96858.22
2023-08-14T07:59:34.283Z,96866.72
2023-08-14T08:02:00.783Z,96871.69
2023-08-14T08:07:05.456Z,96851.94
2023-08-14T08:09:32.507Z,96852.13
2023-08-14T08:11:59.396Z,96854.97
2023-08-14T08:14:27.018Z,96853.81
2023-08-14T08:16:53.823Z,96855.91
2023-08-14T08:19:20.340Z,96853.09
2023-08-14T08:21:46.746Z,96851.53
2023-08-14T08:24:13.210Z,96854.25
2023-08-14T08:26:39.773Z,96857.34
2023-08-14T08:29:06.815Z,96857.16
2023-08-14T08:31:33.730Z,96855.66
2023-08-14T08:34:00.295Z,96858.41
2023-08-14T08:36:26.929Z,96851.22
2023-08-14T08:38:53.472Z,96858.63
2023-08-14T08:41:38.917Z,96853.88
2023-08-14T08:44:11.113Z,96848.63
2023-08-14T08:49:10.896Z,96843.25
2023-08-14T08:51:40.045Z,96838.97
2023-08-14T08:54:07.050Z,96842.22
2023-08-14T08:56:35.260Z,96836.50
2023-08-14T08:59:03.916Z,96840.56
2023-08-14T09:01:32.081Z,96830.53
2023-08-14T09:03:58.940Z,96834.31
2023-08-14T09:06:25.596Z,96839.41
2023-08-14T09:08:52.151Z,96830.56
2023-08-14T09:11:18.948Z,96832.56
2023-08-14T09:13:45.721Z,96834.66
2023-08-14T09:16:16.493Z,96827.91
2023-08-14T09:18:46.701Z,96829.25
2023-08-14T09:21:13.947Z,96831.19
2023-08-14T09:23:41.310Z,96832.31
2023-08-14T09:26:08.414Z,96828.91
2023-08-14T09:28:36.625Z,96836.28
2023-08-14T09:31:10.589Z,96835.31
2023-08-14T09:33:38.153Z,96836.53
2023-08-14T09:36:05.154Z,96833.25
2023-08-14T09:38:32.349Z,96843.88
2023-08-14T09:41:00.153Z,96841.81
2023-08-14T09:43:28.564Z,96837.03
2023-08-14T09:45:57.817Z,96837.41
2023-08-14T09:48:39.455Z,96841.84
2023-08-14T09:51:06.266Z,96838.81
2023-08-14T09:53:32.774Z,96836.09
2023-08-14T09:56:06.077Z,96837.28
2023-08-14T09:58:33.337Z,96836.81
2023-08-14T10:01:00.036Z,96839.50
2023-08-14T10:03:27.038Z,96837.59
2023-08-14T10:05:54.029Z,96830.25
2023-08-14T10:08:21.281Z,96830.91
2023-08-14T10:11:00.542Z,96828.53
2023-08-14T10:13:42.741Z,96817.41
2023-08-14T10:16:13.159Z,96818.28
2023-08-14T10:18:43.089Z,96813.69
2023-08-14T10:21:15.258Z,96812.09
2023-08-14T10:23:42.642Z,96810.00
2023-08-14T10:26:11.149Z,96812.44
2023-08-14T10:28:38.043Z,96811.06
2023-08-14T10:31:05.013Z,96805.28
2023-08-14T10:33:31.930Z,96806.84
2023-08-14T10:36:01.244Z,96801.25
2023-08-14T10:41:23.736Z,96801.84
2023-08-14T10:43:53.393Z,96797.81
2023-08-14T10:46:20.287Z,96796.22
2023-08-14T10:48:50.691Z,96793.81
2023-08-14T10:51:21.899Z,96795.38
2023-08-14T10:53:48.510Z,96791.88
2023-08-14T10:56:15.123Z,96792.00
2023-08-14T10:58:48.783Z,96792.53
2023-08-14T11:01:16.282Z,96787.44
2023-08-14T11:04:06.160Z,96785.97
2023-08-14T11:07:06.485Z,96789.88
2023-08-14T11:09:34.931Z,96787.41
2023-08-14T11:12:06.724Z,96783.72
2023-08-14T11:14:38.894Z,96774.94
2023-08-14T11:17:06.000Z,96788.47
2023-08-14T11:19:35.244Z,96786.88
2023-08-14T11:22:03.012Z,96783.59
2023-08-14T11:24:30.846Z,96783.03
2023-08-14T11:27:01.838Z,96770.50
2023-08-14T11:29:30.785Z,96764.66
2023-08-14T11:32:01.166Z,96763.16
2023-08-14T11:34:27.687Z,96767.16
2023-08-14T11:37:07.368Z,96774.84
2023-08-14T11:39:35.996Z,96767.22
2023-08-14T11:42:04.142Z,96764.56
2023-08-14T11:44:30.697Z,96770.56
2023-08-14T11:46:57.942Z,96764.78
2023-08-14T11:49:25.833Z,96764.53
2023-08-14T11:51:53.767Z,96763.16
2023-08-14T11:54:20.719Z,96761.06
2023-08-14T11:56:48.800Z,96758.97
2023-08-14T11:59:18.478Z,96760.88
2023-08-14T12:01:45.364Z,96768.31
2023-08-14T12:04:12.333Z,96768.03
2023-08-14T12:06:38.942Z,96774.69
2023-08-14T12:09:10.988Z,96768.63
2023-08-14T12:11:39.020Z,96768.75
2023-08-14T12:14:08.859Z,96761.56
2023-08-14T12:16:39.464Z,96764.13
2023-08-14T12:19:12.898Z,96753.97
2023-08-14T12:21:39.554Z,96753.69
2023-08-14T12:24:06.890Z,96751.59
2023-08-14T12:26:42.136Z,96757.50
2023-08-14T12:29:09.466Z,96750.59
2023-08-14T12:31:36.284Z,96750.41
2023-08-14T12:34:07.277Z,96749.44
2023-08-14T12:36:34.484Z,96745.53
2023-08-14T12:39:01.012Z,96745.97
2023-08-14T12:41:27.952Z,96740.50
2023-08-14T12:43:54.489Z,96749.06
2023-08-14T12:46:21.093Z,96738.06
2023-08-14T12:48:47.628Z,96743.34
2023-08-14T12:51:14.076Z,96734.88
2023-08-14T12:53:40.865Z,96732.75
2023-08-14T12:56:07.627Z,96729.06
2023-08-14T12:58:34.117Z,96732.66
2023-08-14T13:03:36.291Z,96721.94
2023-08-14T13:06:04.537Z,96721.50
2023-08-14T13:08:31.103Z,96723.66
2023-08-14T13:10:58.002Z,96717.34
2023-08-14T13:13:28.432Z,96723.44
2023-08-14T13:15:56.358Z,96716.78
2023-08-14T13:18:23.640Z,96727.19
2023-08-14T13:20:50.207Z,96721.72
2023-08-14T13:23:17.076Z,96725.00
2023-08-14T13:25:43.780Z,96724.69
2023-08-14T13:28:10.663Z,96719.88
2023-08-14T13:30:37.629Z,96727.16
2023-08-14T13:33:05.354Z,96721.88
2023-08-14T13:35:31.949Z,96716.91
2023-08-14T13:38:00.112Z,96718.97
2023-08-14T13:40:26.930Z,96715.38
2023-08-14T13:42:53.380Z,96718.88
2023-08-14T13:45:20.198Z,96722.13
2023-08-14T13:47:54.898Z,96721.69
2023-08-14T13:50:33.187Z,96717.75
2023-08-14T13:53:02.544Z,96709.38
2023-08-14T13:55:32.279Z,96710.38
2023-08-14T13:57:59.439Z,96705.84
2023-08-14T14:00:30.142Z,96715.56
2023-08-14T14:02:58.514Z,96710.38
2023-08-14T14:05:25.714Z,96707.19
2023-08-14T14:07:55.787Z,96709.91
2023-08-14T14:10:27.558Z,96704.97
2023-08-14T14:15:23.910Z,96704.94
2023-08-14T14:17:50.793Z,96702.38
2023-08-14T14:20:18.055Z,96704.19
2023-08-14T14:22:44.651Z,96703.97
2023-08-14T14:25:12.459Z,96702.78
2023-08-14T14:27:39.005Z,96704.13
2023-08-14T14:30:06.485Z,96693.97
2023-08-14T14:32:33.027Z,96697.44
2023-08-14T14:34:59.479Z,96700.81
2023-08-14T14:37:25.906Z,96691.22
2023-08-14T14:39:52.520Z,96691.22
2023-08-14T14:42:20.553Z,96691.06
2023-08-14T14:44:47.926Z,96688.06
2023-08-14T14:47:14.604Z,96689.63
2023-08-14T14:49:41.093Z,96686.19
2023-08-14T14:52:07.527Z,96684.94
2023-08-14T14:54:33.936Z,96683.53
2023-08-14T14:57:00.336Z,96678.41
2023-08-14T14:59:26.810Z,96676.53
2023-08-14T15:01:53.679Z,96682.09
2023-08-14T15:04:21.910Z,96676.53
2023-08-14T15:06:48.791Z,96679.78
2023-08-14T15:09:15.225Z,96679.06
2023-08-14T15:11:41.610Z,96668.47
2023-08-14T15:14:08.076Z,96673.31
2023-08-14T15:16:34.742Z,96665.22
2023-08-14T15:19:01.161Z,96661.03
2023-08-14T15:21:27.585Z,96654.03
2023-08-14T15:23:54.045Z,96657.63
2023-08-14T15:26:21.115Z,96655.47
2023-08-14T15:28:47.495Z,96652.59
2023-08-14T15:31:14.021Z,96656.31
2023-08-14T15:33:40.495Z,96651.97
2023-08-14T15:36:07.076Z,96649.59
2023-08-14T15:38:33.724Z,96647.66
2023-08-14T15:41:00.101Z,96637.78
2023-08-14T15:43:26.817Z,96644.28
2023-08-14T15:46:11.277Z,96646.19
2023-08-14T15:48:37.750Z,96639.59
2023-08-14T15:51:04.143Z,96642.38
2023-08-14T15:53:30.573Z,96634.78
2023-08-14T15:55:56.955Z,96632.50
2023-08-14T15:58:23.415Z,96622.38
2023-08-14T16:00:49.902Z,96628.97
2023-08-14T16:03:16.322Z,96630.91
2023-08-14T16:05:42.762Z,96638.47
2023-08-14T16:08:09.255Z,96633.56
2023-08-14T16:10:35.700Z,96633.03
2023-08-14T16:13:02.186Z,96624.38
2023-08-14T16:15:28.667Z,96632.03
2023-08-14T16:17:55.137Z,96626.72
2023-08-14T16:20:21.635Z,96627.53
2023-08-14T16:22:49.238Z,96632.41
2023-08-14T16:25:15.711Z,96632.53
2023-08-14T16:27:42.124Z,96632.97
2023-08-14T16:30:08.972Z,96635.22
2023-08-14T16:32:35.454Z,96638.31
2023-08-14T16:35:02.262Z,96633.38
2023-08-14T16:37:28.763Z,96628.41
2023-08-14T16:39:55.523Z,96640.28
2023-08-14T16:42:21.978Z,96632.78
2023-08-14T16:44:48.395Z,96637.03
2023-08-14T16:47:14.821Z,96629.78
2023-08-14T16:49:41.242Z,96633.19
2023-08-14T16:52:07.722Z,96622.06
2023-08-14T16:54:34.132Z,96627.03
2023-08-14T16:57:00.575Z,96631.25
2023-08-14T16:59:27.042Z,96631.34
2023-08-14T17:01:54.205Z,96624.94
2023-08-14T17:04:21.301Z,96620.84
2023-08-14T17:06:47.787Z,96627.16
2023-08-14T17:09:14.796Z,96623.06
2023-08-14T17:11:41.590Z,96628.41
2023-08-14T17:14:08.054Z,96625.06
2023-08-14T17:16:34.616Z,96630.44
2023-08-14T17:19:01.329Z,96637.59
2023-08-14T17:21:28.868Z,96642.25
2023-08-14T17:23:55.302Z,96644.97
2023-08-14T17:26:21.725Z,96642.34
2023-08-14T17:28:48.213Z,96643.19
2023-08-14T17:31:15.942Z,96647.72
2023-08-14T17:33:42.412Z,96647.19
2023-08-14T17:36:09.034Z,96645.34
2023-08-14T17:38:35.467Z,96647.13
2023-08-14T17:41:02.140Z,96642.47
2023-08-14T17:43:28.642Z,96647.41
2023-08-14T17:45:56.467Z,96646.75
2023-08-14T17:48:23.026Z,96649.06
2023-08-14T17:50:53.317Z,96656.78
2023-08-14T17:53:20.209Z,96658.97
2023-08-14T17:55:46.746Z,96655.25
2023-08-14T17:58:13.211Z,96657.34
2023-08-14T18:00:46.517Z,96653.41
2023-08-14T18:03:13.705Z,96656.06
2023-08-14T18:05:40.176Z,96641.81
2023-08-14T18:08:06.556Z,96639.47
2023-08-14T18:10:33.036Z,96645.28
2023-08-14T18:12:59.465Z,96646.91
2023-08-14T18:15:25.909Z,96649.34
2023-08-14T18:17:52.410Z,96658.72
2023-08-14T18:20:18.857Z,96645.59
2023-08-14T18:22:45.295Z,96652.34
2023-08-14T18:25:11.712Z,96655.25
2023-08-14T18:27:38.228Z,96658.03
2023-08-14T18:30:05.305Z,96662.44
2023-08-14T18:32:32.017Z,96665.25
2023-08-14T18:34:58.453Z,96662.78
2023-08-14T18:37:24.948Z,96662.13
2023-08-14T18:39:51.649Z,96675.63
2023-08-14T18:42:18.118Z,96667.94
2023-08-14T18:44:44.601Z,96660.31
2023-08-14T18:47:11.075Z,96661.72
2023-08-14T18:49:37.832Z,96659.38
2023-08-14T18:52:04.480Z,96658.03
2023-08-14T18:54:30.884Z,96659.22
2023-08-14T18:56:57.333Z,96651.78
2023-08-14T18:59:24.403Z,96656.53
2023-08-14T19:01:52.102Z,96661.34
2023-08-14T19:04:25.841Z,96657.84
2023-08-14T19:06:59.689Z,96658.59
2023-08-14T19:09:26.104Z,96658.28
2023-08-14T19:11:52.545Z,96662.06
2023-08-14T19:14:19.006Z,96655.97
2023-08-14T19:16:45.452Z,96666.56
2023-08-14T19:19:11.906Z,96663.16
2023-08-14T19:21:38.406Z,96659.59
2023-08-14T19:24:05.339Z,96664.94
2023-08-14T19:26:31.808Z,96668.41
2023-08-14T19:28:58.263Z,96678.91
2023-08-14T19:31:26.730Z,96681.84
2023-08-14T19:33:55.872Z,96676.78
2023-08-14T19:36:22.447Z,96683.88
2023-08-14T19:38:48.835Z,96681.38
2023-08-14T19:41:15.323Z,96680.88
2023-08-14T19:43:41.814Z,96685.78
2023-08-14T19:46:08.218Z,96682.72
2023-08-14T19:48:34.741Z,96677.03
2023-08-14T19:51:01.186Z,96674.88
2023-08-14T19:53:27.667Z,96672.69
2023-08-14T19:55:54.220Z,96674.06
2023-08-14T19:58:20.806Z,96661.28
2023-08-14T20:00:48.577Z,96669.31
2023-08-14T20:03:16.088Z,96666.19
2023-08-14T20:05:48.519Z,96662.06
2023-08-14T20:08:15.995Z,96669.97
2023-08-14T20:10:42.975Z,96666.75
2023-08-14T20:13:09.821Z,96661.75
2023-08-14T20:15:43.592Z,96674.31
2023-08-14T20:18:11.086Z,96674.16
2023-08-14T20:20:41.075Z,96673.31
2023-08-14T20:23:08.465Z,96675.09
2023-08-14T20:25:35.521Z,96671.91
2023-08-14T20:28:02.799Z,96665.22
2023-08-14T20:30:29.358Z,96671.38
2023-08-14T20:32:55.911Z,96668.38
2023-08-14T20:35:22.416Z,96670.38
2023-08-14T20:37:48.870Z,96670.38
2023-08-14T20:40:15.279Z,96672.13
2023-08-14T20:42:41.789Z,96666.22
2023-08-14T20:45:08.621Z,96669.03
2023-08-14T20:47:35.955Z,96669.13
2023-08-14T20:50:02.482Z,96670.91
2023-08-14T20:52:28.941Z,96668.41
2023-08-14T20:54:55.594Z,96666.88
2023-08-14T20:57:22.831Z,96661.88
2023-08-14T20:59:49.325Z,96663.84
2023-08-14T21:02:15.789Z,96672.69
2023-08-14T21:04:42.302Z,96666.81
2023-08-14T21:07:09.098Z,96665.22
2023-08-14T21:09:35.930Z,96665.50
2023-08-14T21:12:02.454Z,96671.03
2023-08-14T21:14:28.866Z,96667.69
2023-08-14T21:16:55.366Z,96662.63
2023-08-14T21:19:21.772Z,96665.28
2023-08-14T21:21:48.349Z,96674.97
2023-08-14T21:24:14.806Z,96673.41
2023-08-14T21:26:41.435Z,96672.66
2023-08-14T21:29:07.859Z,96675.34
2023-08-14T21:31:34.440Z,96681.66
2023-08-14T21:34:01.003Z,96682.78
2023-08-14T21:36:27.454Z,96673.34
2023-08-14T21:38:54.067Z,96678.75
2023-08-14T21:41:20.494Z,96672.88
2023-08-14T21:43:46.956Z,96679.94
2023-08-14T21:46:13.498Z,96681.00
2023-08-14T21:48:39.922Z,96681.97
2023-08-14T21:51:06.317Z,96680.25
2023-08-14T21:53:32.961Z,96682.75
2023-08-14T21:55:59.427Z,96687.06
2023-08-14T21:58:25.868Z,96687.91
2023-08-14T22:00:52.401Z,96695.59
2023-08-14T22:03:18.837Z,96695.53
2023-08-14T22:05:45.331Z,96694.63
2023-08-14T22:08:12.027Z,96692.09
2023-08-14T22:10:38.432Z,96694.00
2023-08-14T22:13:04.833Z,96692.56
2023-08-14T22:18:03.390Z,96697.44
2023-08-14T22:20:29.818Z,96692.44
2023-08-14T22:22:56.256Z,96698.91
2023-08-14T22:25:23.003Z,96699.09
2023-08-14T22:27:49.478Z,96703.63
2023-08-14T22:30:16.077Z,96701.22
2023-08-14T22:32:42.700Z,96701.53
2023-08-14T22:35:09.335Z,96699.97
2023-08-14T22:37:35.829Z,96702.72
2023-08-14T22:40:02.252Z,96695.72
2023-08-14T22:42:28.683Z,96692.22
2023-08-14T22:44:55.290Z,96695.53
2023-08-14T22:47:21.837Z,96710.28
2023-08-14T22:49:48.417Z,96703.44
2023-08-14T22:52:14.896Z,96703.69
2023-08-14T22:54:41.330Z,96703.09
2023-08-14T22:57:07.808Z,96711.06
2023-08-14T22:59:34.299Z,96707.72
2023-08-14T23:02:00.792Z,96699.31
2023-08-14T23:04:27.307Z,96703.88
2023-08-14T23:06:53.740Z,96697.97
2023-08-14T23:09:20.152Z,96703.25
2023-08-14T23:11:50.946Z,96706.69
2023-08-14T23:14:17.392Z,96704.09
2023-08-14T23:16:43.791Z,96705.75
2023-08-14T23:19:10.219Z,96718.69
2023-08-14T23:21:36.754Z,96712.56
2023-08-14T23:24:04.182Z,96710.78
2023-08-14T23:26:30.672Z,96713.34
2023-08-14T23:28:57.126Z,96711.44
2023-08-14T23:31:23.821Z,96702.66
2023-08-14T23:33:50.306Z,96696.59
2023-08-14T23:36:17.054Z,96695.66
2023-08-14T23:38:43.598Z,96690.50
2023-08-14T23:41:09.987Z,96688.88
2023-08-14T23:43:36.614Z,96693.22
2023-08-14T23:46:03.100Z,96694.09
2023-08-14T23:48:29.533Z,96694.22
2023-08-14T23:50:56.411Z,96691.75
2023-08-14T23:53:23.332Z,96689.34
2023-08-14T23:55:49.772Z,96688.56
2023-08-14T23:58:16.206Z,96686.13
